Time;durP1;ratioP1;P1;durP2;ratioP2;P2;SDS_P1;SDS_P2;PMS_P1;PMS_P2;Temp;Humidity;BMP_temperature;BMP_pressure;BME280_temperature;BME280_humidity;BME280_pressure;Samples;Min_cycle;Max_cycle;Signal;HPM_P1;HPM_P2
2023/09/18 00:05:15;;;;;;;;;;;20.20;99.90;;;;;;12380949;28;20593;-86
2023/09/18 00:11:18;;;;;;;;;;;20.00;99.90;;;;;;12370359;28;20379;-85
2023/09/18 00:17:21;;;;;;;;;;;19.80;99.90;;;;;;12371094;28;19976;-86
2023/09/18 00:23:23;;;;;;;;;;;19.70;99.90;;;;;;12348499;28;19941;-86
2023/09/18 00:29:25;;;;;;;;;;;19.70;99.90;;;;;;12360942;28;20299;-86
2023/09/18 00:35:26;;;;;;;;;;;19.70;99.90;;;;;;12372130;28;19951;-85
2023/09/18 00:41:28;;;;;;;;;;;19.60;99.90;;;;;;12357697;28;20231;-85
2023/09/18 00:47:30;;;;;;;;;;;19.50;99.90;;;;;;12356508;28;19926;-85
2023/09/18 00:53:32;;;;;;;;;;;19.20;99.90;;;;;;12373094;28;20020;-86
2023/09/18 00:59:34;;;;;;;;;;;19.20;99.90;;;;;;12363920;28;19938;-83
2023/09/18 01:05:36;;;;;;;;;;;19.40;99.90;;;;;;12383644;28;19934;-82
2023/09/18 01:11:45;;;;;;;;;;;19.60;99.90;;;;;;12358536;28;20091;-84
2023/09/18 01:17:48;;;;;;;;;;;19.90;99.90;;;;;;12369674;28;20511;-85
2023/09/18 01:23:51;;;;;;;;;;;20.50;99.90;;;;;;12362552;28;20562;-83
2023/09/18 01:29:53;;;;;;;;;;;20.80;99.90;;;;;;12362728;28;19936;-84
2023/09/18 01:35:56;;;;;;;;;;;21.00;99.90;;;;;;12351619;28;20394;-84
2023/09/18 01:42:03;;;;;;;;;;;21.00;99.90;;;;;;12378350;28;20468;-83
2023/09/18 01:48:06;;;;;;;;;;;20.90;99.90;;;;;;12355068;28;20012;-84
2023/09/18 01:54:08;;;;;;;;;;;21.10;99.90;;;;;;12352700;28;19934;-84
2023/09/18 02:00:10;;;;;;;;;;;21.10;99.90;;;;;;12361308;28;19929;-83
2023/09/18 02:06:12;;;;;;;;;;;21.00;99.90;;;;;;12369691;28;19957;-83
2023/09/18 02:12:17;;;;;;;;;;;20.90;99.90;;;;;;12368888;28;19968;-85
2023/09/18 02:18:19;;;;;;;;;;;20.90;99.90;;;;;;12373563;28;20014;-86
2023/09/18 02:24:21;;;;;;;;;;;20.80;99.90;;;;;;12377476;28;20060;-82
2023/09/18 02:30:22;;;;;;;;;;;20.70;99.90;;;;;;12378460;28;20060;-84
2023/09/18 02:36:24;;;;;;;;;;;20.90;99.90;;;;;;12361893;28;19930;-86
2023/09/18 02:42:26;;;;;;;;;;;21.20;99.90;;;;;;12373452;28;20036;-85
2023/09/18 02:48:28;;;;;;;;;;;21.20;78.30;;;;;;12347282;28;19929;-84
2023/09/18 02:54:29;;;;;;;;;;;21.30;66.80;;;;;;12352755;28;20000;-86
2023/09/18 03:00:31;;;;;;;;;;;21.30;95.70;;;;;;12346073;28;20036;-86
2023/09/18 03:06:44;;;;;;;;;;;21.30;50.80;;;;;;12355404;28;20743;-84
2023/09/18 03:12:49;;;;;;;;;;;21.50;42.00;;;;;;12361417;28;19940;-84
2023/09/18 03:18:51;;;;;;;;;;;21.70;23.10;;;;;;12376457;28;20009;-85
2023/09/18 03:24:53;;;;;;;;;;;21.60;16.50;;;;;;12374223;28;19936;-84
2023/09/18 03:30:55;;;;;;;;;;;21.60;16.40;;;;;;12379830;28;19926;-85
2023/09/18 03:36:56;;;;;;;;;;;21.60;17.10;;;;;;12375285;28;20298;-83
2023/09/18 03:42:58;;;;;;;;;;;21.60;16.30;;;;;;12355115;28;19935;-82
2023/09/18 03:49:00;;;;;;;;;;;21.60;18.90;;;;;;12358909;28;20018;-83
2023/09/18 03:55:02;;;;;;;;;;;21.50;28.70;;;;;;12362419;28;19929;-86
2023/09/18 04:01:04;;;;;;;;;;;21.60;25.70;;;;;;12360575;28;19937;-84
2023/09/18 04:07:06;;;;;;;;;;;21.70;9.90;;;;;;12371129;28;19941;-83
2023/09/18 04:13:08;;;;;;;;;;;21.70;10.30;;;;;;12358174;28;19968;-83
2023/09/18 04:19:11;;;;;;;;;;;21.70;11.00;;;;;;12352640;28;19930;-82
2023/09/18 04:25:13;;;;;;;;;;;21.70;19.40;;;;;;12336340;28;19936;-84
2023/09/18 04:31:16;;;;;;;;;;;21.70;4.50;;;;;;12353237;28;19972;-82
2023/09/18 04:37:17;;;;;;;;;;;21.60;19.70;;;;;;12354667;28;19933;-83
2023/09/18 04:43:19;;;;;;;;;;;21.60;12.60;;;;;;12368878;28;20382;-82
2023/09/18 04:49:21;;;;;;;;;;;21.50;20.40;;;;;;12373788;28;19973;-85
2023/09/18 04:55:23;;;;;;;;;;;21.50;29.50;;;;;;12357412;28;20028;-84
2023/09/18 05:01:25;;;;;;;;;;;21.30;31.10;;;;;;12377715;28;20184;-82
2023/09/18 05:07:27;;;;;;;;;;;21.20;50.00;;;;;;12364221;28;19938;-85
2023/09/18 05:13:28;;;;;;;;;;;21.20;49.50;;;;;;12379215;28;20017;-85
2023/09/18 05:19:30;;;;;;;;;;;21.20;52.50;;;;;;12359031;28;20060;-85
2023/09/18 05:25:33;;;;;;;;;;;21.20;48.00;;;;;;12350218;28;19952;-86
2023/09/18 05:31:35;;;;;;;;;;;21.10;46.40;;;;;;12362604;28;19965;-86
2023/09/18 05:37:37;;;;;;;;;;;21.10;50.00;;;;;;12371589;28;19961;-85
2023/09/18 05:43:40;;;;;;;;;;;21.00;91.10;;;;;;12362840;28;19953;-86
2023/09/18 05:49:42;;;;;;;;;;;20.90;91.20;;;;;;12353683;28;20392;-86
2023/09/18 05:55:44;;;;;;;;;;;20.70;99.90;;;;;;12380811;28;19930;-82
2023/09/18 06:01:48;;;;;;;;;;;20.50;99.90;;;;;;12380639;28;19937;-83
2023/09/18 06:07:50;;;;;;;;;;;20.40;99.90;;;;;;12356073;28;20503;-85
2023/09/18 06:13:52;;;;;;;;;;;20.40;99.90;;;;;;12366573;28;20373;-86
2023/09/18 06:19:55;;;;;;;;;;;20.40;99.90;;;;;;12359356;28;20343;-84
2023/09/18 06:25:59;;;;;;;;;;;20.40;99.90;;;;;;12361313;28;20036;-85
2023/09/18 06:32:00;;;;;;;;;;;20.40;99.90;;;;;;12371539;28;19980;-87
2023/09/18 06:38:02;;;;;;;;;;;20.40;99.90;;;;;;12363822;28;19983;-84
2023/09/18 06:44:04;;;;;;;;;;;20.40;99.90;;;;;;12363117;28;19938;-85
2023/09/18 06:50:06;;;;;;;;;;;20.50;99.90;;;;;;12348511;28;19930;-86
2023/09/18 06:56:09;;;;;;;;;;;20.50;99.90;;;;;;12355117;28;19980;-85
2023/09/18 07:02:11;;;;;;;;;;;20.50;99.90;;;;;;12358843;28;19942;-85
2023/09/18 07:08:12;;;;;;;;;;;20.60;99.90;;;;;;12369170;28;19951;-85
2023/09/18 07:14:15;;;;;;;;;;;20.90;99.90;;;;;;12354188;28;20409;-85
2023/09/18 07:20:16;;;;;;;;;;;20.90;99.90;;;;;;12352504;28;19934;-85
2023/09/18 07:26:20;;;;;;;;;;;21.00;99.90;;;;;;12375249;28;19930;-84
2023/09/18 07:32:24;;;;;;;;;;;21.00;99.90;;;;;;12371080;28;20259;-85
2023/09/18 07:38:38;;;;;;;;;;;21.00;99.90;;;;;;12340407;28;19953;-85
2023/09/18 07:44:40;;;;;;;;;;;21.00;99.90;;;;;;12365822;28;20290;-85
2023/09/18 07:50:45;;;;;;;;;;;21.20;99.90;;;;;;12349652;28;19936;-87
2023/09/18 07:56:47;;;;;;;;;;;21.50;99.90;;;;;;12331967;28;19941;-84
2023/09/18 08:02:50;;;;;;;;;;;21.70;99.90;;;;;;12356832;28;19930;-83
2023/09/18 08:08:53;;;;;;;;;;;21.90;99.90;;;;;;12355941;28;19960;-87
2023/09/18 08:14:58;;;;;;;;;;;22.00;90.40;;;;;;12348567;28;19934;-84
2023/09/18 08:21:00;;;;;;;;;;;22.00;94.50;;;;;;12336502;28;20470;-84
2023/09/18 08:27:03;;;;;;;;;;;21.80;87.60;;;;;;12346582;28;20420;-85
2023/09/18 08:33:05;;;;;;;;;;;21.80;62.30;;;;;;12358981;28;20012;-85
2023/09/18 08:39:07;;;;;;;;;;;21.70;51.30;;;;;;12367232;28;19984;-83
2023/09/18 08:45:10;;;;;;;;;;;21.70;71.10;;;;;;12368426;28;20394;-84
2023/09/18 08:51:13;;;;;;;;;;;21.60;62.30;;;;;;12368759;28;20738;-85
2023/09/18 08:57:15;;;;;;;;;;;21.60;57.50;;;;;;12374795;28;19930;-85
2023/09/18 09:03:16;;;;;;;;;;;21.50;58.20;;;;;;12350882;28;19984;-84
2023/09/18 09:09:19;;;;;;;;;;;21.50;68.70;;;;;;12352823;28;19961;-85
2023/09/18 09:15:22;;;;;;;;;;;21.50;50.00;;;;;;12370844;28;20032;-84
2023/09/18 09:21:38;;;;;;;;;;;21.50;50.70;;;;;;12354018;28;19930;-85
2023/09/18 09:27:42;;;;;;;;;;;21.40;67.60;;;;;;12361902;28;19930;-85
2023/09/18 09:33:50;;;;;;;;;;;21.40;73.00;;;;;;12369354;28;19976;-83
2023/09/18 09:39:52;;;;;;;;;;;21.50;77.50;;;;;;12377043;28;19972;-83
2023/09/18 09:45:58;;;;;;;;;;;21.50;63.20;;;;;;12370514;28;19938;-85
2023/09/18 09:52:01;;;;;;;;;;;21.50;75.00;;;;;;12372330;28;20442;-83
2023/09/18 09:58:04;;;;;;;;;;;21.60;61.70;;;;;;12374179;28;19993;-85
2023/09/18 10:04:10;;;;;;;;;;;21.50;56.80;;;;;;12344101;28;20020;-83
2023/09/18 10:10:12;;;;;;;;;;;21.40;91.80;;;;;;12347081;28;19934;-86
2023/09/18 10:16:20;;;;;;;;;;;21.40;86.80;;;;;;12359805;28;20258;-83
2023/09/18 10:22:28;;;;;;;;;;;21.30;80.60;;;;;;12363475;28;20041;-83
2023/09/18 10:28:30;;;;;;;;;;;21.30;84.90;;;;;;12377532;28;20048;-83
2023/09/18 10:34:33;;;;;;;;;;;21.40;80.40;;;;;;12373162;28;19937;-82
2023/09/18 10:40:36;;;;;;;;;;;21.50;87.40;;;;;;12359357;28;19930;-83
2023/09/18 10:46:37;;;;;;;;;;;21.60;61.50;;;;;;12359174;28;19930;-82
2023/09/18 10:52:43;;;;;;;;;;;21.50;59.40;;;;;;12354654;28;19973;-84
2023/09/18 10:58:45;;;;;;;;;;;21.60;60.30;;;;;;12353609;28;19934;-82
2023/09/18 11:04:47;;;;;;;;;;;21.60;46.80;;;;;;12358545;28;19984;-83
2023/09/18 11:11:16;;;;;;;;;;;21.70;31.90;;;;;;12368454;28;20509;-84
2023/09/18 11:17:36;;;;;;;;;;;21.90;33.70;;;;;;12345389;28;20279;-83
2023/09/18 11:23:42;;;;;;;;;;;21.80;46.80;;;;;;12349240;28;20035;-83
2023/09/18 11:29:46;;;;;;;;;;;21.80;87.70;;;;;;12367042;28;20386;-84
2023/09/18 11:35:54;;;;;;;;;;;21.80;34.40;;;;;;12355494;28;19992;-83
2023/09/18 11:42:06;;;;;;;;;;;21.90;46.40;;;;;;12374031;28;19993;-83
2023/09/18 11:48:10;;;;;;;;;;;21.90;28.10;;;;;;12375877;28;19930;-83
2023/09/18 11:54:12;;;;;;;;;;;22.00;40.60;;;;;;12374851;28;20435;-84
2023/09/18 12:00:22;;;;;;;;;;;22.00;21.40;;;;;;12350626;28;20032;-84
2023/09/18 12:06:23;;;;;;;;;;;22.50;11.60;;;;;;12364538;28;20570;-87
2023/09/18 12:12:27;;;;;;;;;;;22.90;1.00;;;;;;12329092;28;19929;-85
2023/09/18 12:18:28;;;;;;;;;;;22.70;1.00;;;;;;12373685;28;20437;-81
2023/09/18 12:24:31;;;;;;;;;;;22.40;1.00;;;;;;12356226;28;19933;-83
2023/09/18 12:30:34;;;;;;;;;;;22.30;1.00;;;;;;12371082;28;19936;-84
2023/09/18 12:36:36;;;;;;;;;;;22.20;1.00;;;;;;12358600;28;20024;-83
2023/09/18 12:42:40;;;;;;;;;;;22.20;1.00;;;;;;12370251;28;19976;-83
2023/09/18 12:48:46;;;;;;;;;;;22.10;1.00;;;;;;12375775;28;19937;-83
2023/09/18 12:54:54;;;;;;;;;;;22.10;1.00;;;;;;12365578;28;19965;-83
2023/09/18 13:00:56;;;;;;;;;;;22.10;9.00;;;;;;12376915;28;19976;-85
2023/09/18 13:07:09;;;;;;;;;;;22.20;5.50;;;;;;12378822;28;20413;-86
2023/09/18 13:13:21;;;;;;;;;;;22.90;1.00;;;;;;12361634;28;19936;-84
2023/09/18 13:19:23;;;;;;;;;;;23.50;1.00;;;;;;12381021;28;20454;-85
2023/09/18 13:25:26;;;;;;;;;;;23.40;1.00;;;;;;12364222;28;19930;-82
2023/09/18 13:31:31;;;;;;;;;;;23.50;1.00;;;;;;12365971;28;19937;-82
2023/09/18 13:37:33;;;;;;;;;;;23.60;1.00;;;;;;12357308;28;19929;-84
2023/09/18 13:43:35;;;;;;;;;;;23.30;1.00;;;;;;12371440;28;19965;-81
2023/09/18 13:49:38;;;;;;;;;;;23.20;1.00;;;;;;12359894;28;19930;-82
2023/09/18 13:55:40;;;;;;;;;;;23.10;1.00;;;;;;12365894;28;19965;-82
2023/09/18 14:01:41;;;;;;;;;;;23.00;1.00;;;;;;12379444;28;19959;-82
2023/09/18 14:07:43;;;;;;;;;;;23.20;1.00;;;;;;12362579;28;20016;-87
2023/09/18 14:13:47;;;;;;;;;;;23.60;1.00;;;;;;12365803;28;19933;-85
2023/09/18 14:19:49;;;;;;;;;;;23.60;1.00;;;;;;12356574;28;20482;-83
2023/09/18 14:25:51;;;;;;;;;;;23.70;1.00;;;;;;12372226;28;19934;-83
2023/09/18 14:31:53;;;;;;;;;;;23.20;1.00;;;;;;12360627;28;19945;-85
2023/09/18 14:37:55;;;;;;;;;;;22.80;1.00;;;;;;12369939;28;19930;-85
2023/09/18 14:43:58;;;;;;;;;;;22.60;1.00;;;;;;12355051;28;19972;-83
2023/09/18 14:50:01;;;;;;;;;;;22.40;1.00;;;;;;12360030;28;19972;-87
2023/09/18 14:56:04;;;;;;;;;;;22.40;1.00;;;;;;12331477;28;19926;-84
2023/09/18 15:02:06;;;;;;;;;;;22.30;1.00;;;;;;12361075;28;19930;-84
2023/09/18 15:08:07;;;;;;;;;;;22.10;3.60;;;;;;12378584;28;20634;-84
2023/09/18 15:14:11;;;;;;;;;;;22.00;14.10;;;;;;12345574;28;19933;-84
2023/09/18 15:20:13;;;;;;;;;;;22.10;1.90;;;;;;12340688;28;19933;-84
2023/09/18 15:26:15;;;;;;;;;;;22.50;1.00;;;;;;12367292;28;20394;-83
2023/09/18 15:32:18;;;;;;;;;;;22.60;1.00;;;;;;12355374;28;20024;-86
2023/09/18 15:38:20;;;;;;;;;;;22.40;1.00;;;;;;12350131;28;20392;-85
2023/09/18 15:44:23;;;;;;;;;;;22.40;1.00;;;;;;12359179;28;19941;-86
2023/09/18 15:50:24;;;;;;;;;;;22.40;1.00;;;;;;12371344;28;19929;-85
2023/09/18 15:56:26;;;;;;;;;;;22.60;1.00;;;;;;12353635;28;20471;-84
2023/09/18 16:02:28;;;;;;;;;;;23.10;1.00;;;;;;12376996;28;19980;-85
2023/09/18 16:08:30;;;;;;;;;;;23.10;1.00;;;;;;12364955;28;20009;-83
2023/09/18 16:14:31;;;;;;;;;;;23.00;1.00;;;;;;12335636;28;20016;-84
2023/09/18 16:20:33;;;;;;;;;;;22.90;1.00;;;;;;12364834;28;20022;-83
2023/09/18 16:26:35;;;;;;;;;;;22.40;1.00;;;;;;12358620;28;20549;-82
2023/09/18 16:32:38;;;;;;;;;;;21.90;1.00;;;;;;12361348;28;20244;-82
2023/09/18 16:38:41;;;;;;;;;;;22.00;9.50;;;;;;12295610;28;20001;-82
2023/09/18 16:44:43;;;;;;;;;;;22.00;1.00;;;;;;12281071;28;19934;-83
2023/09/18 16:50:45;;;;;;;;;;;22.00;98.70;;;;;;12289940;28;19937;-84
2023/09/18 16:56:48;;;;;;;;;;;21.90;99.90;;;;;;12284483;28;19930;-84
2023/09/18 17:02:50;;;;;;;;;;;21.80;99.90;;;;;;12297472;28;19935;-83
2023/09/18 17:08:53;;;;;;;;;;;21.50;99.90;;;;;;12276532;28;19935;-83
2023/09/18 17:14:55;;;;;;;;;;;21.20;99.90;;;;;;12279530;28;19935;-83
2023/09/18 17:20:57;;;;;;;;;;;21.00;99.90;;;;;;12288464;28;20300;-83
2023/09/18 17:26:59;;;;;;;;;;;20.50;99.90;;;;;;12282895;28;19930;-83
2023/09/18 17:33:03;;;;;;;;;;;20.20;99.90;;;;;;12289673;28;20009;-83
2023/09/18 17:39:07;;;;;;;;;;;20.00;99.90;;;;;;12357171;28;19926;-84
2023/09/18 17:45:11;;;;;;;;;;;19.90;99.90;;;;;;12368581;28;20016;-84
2023/09/18 17:51:14;;;;;;;;;;;19.90;99.90;;;;;;12383909;28;20056;-82
2023/09/18 17:57:16;;;;;;;;;;;19.80;99.90;;;;;;12368006;28;19930;-82
2023/09/18 18:03:18;;;;;;;;;;;19.80;99.90;;;;;;12362487;28;19930;-85
2023/09/18 18:09:20;;;;;;;;;;;19.80;99.90;;;;;;12356376;28;19934;-84
2023/09/18 18:15:22;;;;;;;;;;;19.80;99.90;;;;;;12366137;28;20402;-82
2023/09/18 18:21:23;;;;;;;;;;;19.70;99.90;;;;;;12360759;28;20039;-82
2023/09/18 18:27:25;;;;;;;;;;;19.70;99.90;;;;;;12362106;28;20023;-85
2023/09/18 18:33:27;;;;;;;;;;;19.70;99.90;;;;;;12353615;28;20024;-83
2023/09/18 18:39:29;;;;;;;;;;;19.70;99.90;;;;;;12364761;28;19996;-82
2023/09/18 18:45:31;;;;;;;;;;;19.80;99.90;;;;;;12382066;28;20492;-83
2023/09/18 18:51:33;;;;;;;;;;;19.80;99.90;;;;;;12364187;28;19937;-82
2023/09/18 18:57:35;;;;;;;;;;;19.90;99.90;;;;;;12364339;28;19934;-84
2023/09/18 19:03:37;;;;;;;;;;;19.90;99.90;;;;;;12362043;28;20408;-85
2023/09/18 19:09:41;;;;;;;;;;;19.90;97.60;;;;;;12362609;28;19934;-82
2023/09/18 19:15:42;;;;;;;;;;;19.90;97.60;;;;;;12361738;28;19937;-82
2023/09/18 19:21:44;;;;;;;;;;;19.90;98.60;;;;;;12375599;28;20558;-82
2023/09/18 19:27:46;;;;;;;;;;;19.90;93.90;;;;;;12362844;28;19930;-85
2023/09/18 19:33:48;;;;;;;;;;;19.70;1.00;;;;;;12346728;28;20379;-87
2023/09/18 19:39:50;;;;;;;;;;;18.90;35.40;;;;;;12346392;28;19941;-87
2023/09/18 19:45:52;;;;;;;;;;;18.60;79.50;;;;;;12367063;28;19972;-87
2023/09/18 19:51:54;;;;;;;;;;;18.70;99.90;;;;;;12356070;28;20053;-86
2023/09/18 19:57:58;;;;;;;;;;;18.50;99.90;;;;;;12368899;28;22455;-88
2023/09/18 20:04:00;;;;;;;;;;;18.00;99.90;;;;;;12380189;28;19934;-85
2023/09/18 20:10:02;;;;;;;;;;;17.50;99.90;;;;;;12364348;28;20294;-85
2023/09/18 20:16:04;;;;;;;;;;;17.10;99.90;;;;;;12353502;28;19934;-86
2023/09/18 20:22:06;;;;;;;;;;;16.90;99.90;;;;;;12346149;28;19929;-84
2023/09/18 20:28:08;;;;;;;;;;;16.90;99.90;;;;;;12355881;28;20020;-82
2023/09/18 20:34:10;;;;;;;;;;;16.80;99.90;;;;;;12370848;28;19930;-83
2023/09/18 20:40:11;;;;;;;;;;;16.70;99.90;;;;;;12425664;28;19933;-82
2023/09/18 20:46:13;;;;;;;;;;;16.70;99.90;;;;;;12417067;28;19916;-82
2023/09/18 20:52:16;;;;;;;;;;;16.60;99.90;;;;;;12433043;28;19989;-82
2023/09/18 20:58:18;;;;;;;;;;;16.70;99.90;;;;;;12414058;28;19933;-82
2023/09/18 21:04:19;;;;;;;;;;;16.60;99.90;;;;;;12395103;28;20186;-82
2023/09/18 21:10:21;;;;;;;;;;;16.50;99.90;;;;;;12365536;28;20344;-82
2023/09/18 21:16:34;;;;;;;;;;;16.60;99.90;;;;;;12380543;28;19977;-83
2023/09/18 21:22:36;;;;;;;;;;;16.50;99.90;;;;;;12364261;28;20021;-84
2023/09/18 21:28:38;;;;;;;;;;;16.50;99.90;;;;;;12366998;28;19936;-83
2023/09/18 21:34:40;;;;;;;;;;;16.40;99.90;;;;;;12364227;28;19930;-83
2023/09/18 21:40:42;;;;;;;;;;;16.30;99.90;;;;;;12367552;28;19984;-84
2023/09/18 21:46:44;;;;;;;;;;;16.40;99.90;;;;;;12377804;28;19925;-83
2023/09/18 21:52:46;;;;;;;;;;;16.30;99.90;;;;;;12355256;28;19930;-82
2023/09/18 21:58:47;;;;;;;;;;;16.30;99.90;;;;;;12362770;28;20275;-83
2023/09/18 22:04:50;;;;;;;;;;;16.30;99.90;;;;;;12381286;28;19930;-82
2023/09/18 22:10:52;;;;;;;;;;;16.30;99.90;;;;;;12363323;28;19988;-83
2023/09/18 22:16:55;;;;;;;;;;;16.30;99.90;;;;;;12376279;28;19940;-82
2023/09/18 22:23:02;;;;;;;;;;;16.30;99.90;;;;;;12373668;28;19929;-81
2023/09/18 22:29:06;;;;;;;;;;;16.20;99.90;;;;;;12361696;28;19930;-82
2023/09/18 22:35:09;;;;;;;;;;;16.30;99.90;;;;;;12363307;28;19937;-81
2023/09/18 22:41:11;;;;;;;;;;;16.30;99.90;;;;;;12361864;28;19971;-81
2023/09/18 22:47:32;;;;;;;;;;;16.20;99.90;;;;;;12373371;28;19936;-80
2023/09/18 22:53:36;;;;;;;;;;;16.30;99.90;;;;;;12352376;28;20238;-82
2023/09/18 22:59:38;;;;;;;;;;;16.20;99.90;;;;;;12355876;28;19929;-82
2023/09/18 23:05:40;;;;;;;;;;;16.10;99.90;;;;;;12374707;28;19930;-80
2023/09/18 23:11:42;;;;;;;;;;;16.20;99.90;;;;;;12376736;28;20057;-81
2023/09/18 23:17:44;;;;;;;;;;;16.20;99.90;;;;;;12371677;28;20591;-80
2023/09/18 23:23:46;;;;;;;;;;;16.20;99.90;;;;;;12357396;28;19926;-81
2023/09/18 23:29:48;;;;;;;;;;;16.20;99.90;;;;;;12352285;28;20433;-82
2023/09/18 23:35:50;;;;;;;;;;;16.30;99.90;;;;;;12362321;28;20371;-80
2023/09/18 23:41:52;;;;;;;;;;;16.30;99.90;;;;;;12374116;28;20020;-79
2023/09/18 23:47:58;;;;;;;;;;;16.20;99.90;;;;;;12376351;28;20318;-81
2023/09/18 23:54:00;;;;;;;;;;;16.20;99.90;;;;;;12356812;28;19926;-80
